createdAt,value
2023-04-25T00:03:27.977Z,12.10
2023-04-25T00:08:33.370Z,12.24
2023-04-25T00:13:38.581Z,12.30
2023-04-25T00:18:44.393Z,12.38
2023-04-25T00:23:50.009Z,12.40
2023-04-25T00:28:55.154Z,12.58
2023-04-25T00:34:00.170Z,12.68
2023-04-25T00:39:07.321Z,12.70
2023-04-25T00:44:14.569Z,12.81
2023-04-25T00:49:19.782Z,13.08
2023-04-25T00:54:25.093Z,13.33
2023-04-25T00:59:34.179Z,13.55
2023-04-25T01:04:39.221Z,13.75
2023-04-25T01:09:45.621Z,13.92
2023-04-25T01:14:50.642Z,14.01
2023-04-25T01:19:56.076Z,14.17
2023-04-25T01:25:02.503Z,14.18
2023-04-25T01:30:09.521Z,14.31
2023-04-25T01:35:15.138Z,14.60
2023-04-25T01:40:22.009Z,14.91
2023-04-25T01:45:26.867Z,14.93
2023-04-25T01:50:32.537Z,14.82
2023-04-25T01:55:37.615Z,14.72
2023-04-25T02:00:47.067Z,14.70
2023-04-25T02:05:52.298Z,14.64
2023-04-25T02:10:57.780Z,14.63
2023-04-25T02:16:09.188Z,14.68
2023-04-25T02:21:17.579Z,14.83
2023-04-25T02:26:23.252Z,14.90
2023-04-25T02:31:29.085Z,14.93
2023-04-25T02:36:37.874Z,15.12
2023-04-25T02:41:43.016Z,15.36
2023-04-25T02:46:48.293Z,15.68
2023-04-25T02:51:54.139Z,15.82
2023-04-25T02:56:59.253Z,15.89
2023-04-25T03:02:11.478Z,15.98
2023-04-25T03:07:16.837Z,16.04
2023-04-25T03:12:22.077Z,16.06
2023-04-25T03:17:27.423Z,16.20
2023-04-25T03:22:32.704Z,16.43
2023-04-25T03:27:37.805Z,16.77
2023-04-25T03:32:44.386Z,17.05
2023-04-25T03:37:54.713Z,17.30
2023-04-25T03:43:06.291Z,17.51
2023-04-25T03:48:12.452Z,17.62
2023-04-25T03:53:17.634Z,17.82
2023-04-25T03:58:42.332Z,17.89
2023-04-25T04:03:47.525Z,18.06
2023-04-25T04:08:52.979Z,18.25
2023-04-25T04:14:00.599Z,18.11
2023-04-25T04:19:06.597Z,18.17
2023-04-25T04:24:14.171Z,18.29
2023-04-25T04:29:34.669Z,18.38
2023-04-25T04:34:57.628Z,18.44
2023-04-25T04:40:08.285Z,18.54
2023-04-25T04:45:21.209Z,18.54
2023-04-25T04:50:50.476Z,18.57
2023-04-25T04:56:03.099Z,18.60
2023-04-25T05:01:08.396Z,18.67
2023-04-25T05:06:32.923Z,18.65
2023-04-25T05:12:00.722Z,18.63
2023-04-25T05:17:23.864Z,18.66
2023-04-25T05:22:52.088Z,18.57
2023-04-25T05:28:02.768Z,18.52
2023-04-25T05:33:30.249Z,18.69
2023-04-25T05:38:37.171Z,18.68
2023-04-25T05:44:06.249Z,18.81
2023-04-25T05:49:28.353Z,18.72
2023-04-25T05:55:00.839Z,18.91
2023-04-25T06:00:12.242Z,18.91
2023-04-25T06:05:21.531Z,18.94
2023-04-25T06:10:28.132Z,18.96
2023-04-25T06:15:34.930Z,18.83
2023-04-25T06:20:40.008Z,18.91
2023-04-25T06:25:46.249Z,19.07
2023-04-25T06:30:51.815Z,19.19
2023-04-25T06:35:59.017Z,19.29
2023-04-25T06:41:07.548Z,19.40
2023-04-25T06:46:15.883Z,19.45
2023-04-25T06:51:27.373Z,19.23
2023-04-25T06:56:34.445Z,19.10
2023-04-25T07:01:46.805Z,19.00
2023-04-25T07:07:00.248Z,19.03
2023-04-25T07:12:17.216Z,19.18
2023-04-25T07:17:24.330Z,19.09
2023-04-25T07:22:30.175Z,19.16
2023-04-25T07:27:35.451Z,18.97
2023-04-25T07:32:49.736Z,19.34
2023-04-25T07:37:54.130Z,19.48
2023-04-25T07:43:00.261Z,19.44
2023-04-25T07:48:22.139Z,19.41
2023-04-25T07:53:31.390Z,19.38
2023-04-25T07:58:41.857Z,19.41
2023-04-25T08:03:50.652Z,19.62
2023-04-25T08:09:12.658Z,20.03
2023-04-25T08:14:20.293Z,20.01
2023-04-25T08:19:27.447Z,20.18
2023-04-25T08:24:34.022Z,19.93
2023-04-25T08:29:39.740Z,19.44
2023-04-25T08:34:46.929Z,19.12
2023-04-25T08:39:57.965Z,18.91
2023-04-25T08:45:45.293Z,18.75
2023-04-25T08:51:01.080Z,18.72
2023-04-25T08:56:06.658Z,18.56
2023-04-25T09:01:15.140Z,18.40
2023-04-25T09:06:30.083Z,18.39
2023-04-25T09:11:36.278Z,18.38
2023-04-25T09:17:02.542Z,18.30
2023-04-25T09:22:24.617Z,18.28
2023-04-25T09:27:32.735Z,18.45
2023-04-25T09:32:48.349Z,18.32
2023-04-25T09:37:55.285Z,18.09
2023-04-25T09:43:23.848Z,18.04
2023-04-25T09:48:32.667Z,17.87
2023-04-25T09:53:45.415Z,17.60
2023-04-25T09:58:57.473Z,17.57
2023-04-25T10:04:04.461Z,17.48
2023-04-25T10:09:36.372Z,17.32
2023-04-25T10:14:42.574Z,17.21
2023-04-25T10:19:48.263Z,17.08
2023-04-25T10:24:53.911Z,16.98
2023-04-25T10:30:06.983Z,16.81
2023-04-25T10:35:20.699Z,16.80
2023-04-25T10:40:25.763Z,16.67
2023-04-25T10:45:30.917Z,16.56
2023-04-25T10:50:44.862Z,16.47
2023-04-25T10:55:54.175Z,16.34
2023-04-25T11:01:00.743Z,16.24
2023-04-25T11:06:08.393Z,16.14
2023-04-25T11:11:13.618Z,16.01
2023-04-25T11:16:27.494Z,15.97
2023-04-25T11:21:35.033Z,15.86
2023-04-25T11:26:40.252Z,15.77
2023-04-25T11:31:49.334Z,15.69
2023-04-25T11:36:55.436Z,15.59
2023-04-25T11:42:01.179Z,15.50
2023-04-25T11:47:06.734Z,15.43
2023-04-25T11:52:12.130Z,15.34
2023-04-25T11:57:18.588Z,15.24
2023-04-25T12:02:30.286Z,15.11
2023-04-25T12:07:35.350Z,15.01
2023-04-25T12:12:41.551Z,14.86
2023-04-25T12:17:55.068Z,14.77
2023-04-25T12:23:00.769Z,14.62
2023-04-25T12:28:26.274Z,14.54
2023-04-25T12:33:42.542Z,14.45
2023-04-25T12:38:47.715Z,14.35
2023-04-25T12:43:52.619Z,14.24
2023-04-25T12:49:02.705Z,14.14
2023-04-25T12:54:14.457Z,14.08
2023-04-25T12:59:20.289Z,14.08
2023-04-25T13:04:25.794Z,14.12
2023-04-25T13:09:30.884Z,14.12
2023-04-25T13:14:36.214Z,14.11
2023-04-25T13:19:41.886Z,14.11
2023-04-25T13:24:47.063Z,14.03
2023-04-25T13:29:51.763Z,14.06
2023-04-25T13:34:56.674Z,14.04
2023-04-25T13:40:07.491Z,14.01
2023-04-25T13:45:12.539Z,13.95
2023-04-25T13:50:18.536Z,13.88
2023-04-25T13:55:23.669Z,13.80
2023-04-25T14:00:28.882Z,13.71
2023-04-25T14:05:34.069Z,13.52
2023-04-25T14:10:40.544Z,13.41
2023-04-25T14:15:47.080Z,13.30
2023-04-25T14:20:52.387Z,13.17
2023-04-25T14:25:58.804Z,13.11
2023-04-25T14:31:03.019Z,13.02
2023-04-25T14:36:09.644Z,12.93
2023-04-25T14:41:14.377Z,12.85
2023-04-25T14:46:19.652Z,12.69
2023-04-25T14:51:24.753Z,12.61
2023-04-25T14:56:29.913Z,12.53
2023-04-25T15:01:35.483Z,12.44
2023-04-25T15:06:42.371Z,12.34
2023-04-25T15:11:47.648Z,12.19
2023-04-25T15:16:55.613Z,12.06
2023-04-25T15:22:05.327Z,11.88
2023-04-25T15:27:14.616Z,11.77
2023-04-25T15:32:20.622Z,11.65
2023-04-25T15:37:25.668Z,11.54
2023-04-25T15:42:30.928Z,11.46
2023-04-25T15:47:38.086Z,11.38
2023-04-25T15:52:43.272Z,11.24
2023-04-25T15:57:49.104Z,11.11
2023-04-25T16:02:54.418Z,11.03
2023-04-25T16:07:59.539Z,10.86
2023-04-25T16:13:05.127Z,10.70
2023-04-25T16:18:10.208Z,10.57
2023-04-25T16:23:15.447Z,10.47
2023-04-25T16:28:21.133Z,10.41
2023-04-25T16:33:26.166Z,10.27
2023-04-25T16:38:32.653Z,10.21
2023-04-25T16:43:37.970Z,10.20
2023-04-25T16:48:42.979Z,10.10
2023-04-25T16:53:50.988Z,9.99
2023-04-25T16:58:55.494Z,9.82
2023-04-25T17:04:00.922Z,9.71
2023-04-25T17:09:07.368Z,9.69
2023-04-25T17:14:15.371Z,9.74
2023-04-25T17:19:20.429Z,9.76
2023-04-25T17:24:25.447Z,9.72
2023-04-25T17:29:30.479Z,9.65
2023-04-25T17:34:35.619Z,9.57
2023-04-25T17:39:40.687Z,9.47
2023-04-25T17:44:45.927Z,9.37
2023-04-25T17:49:51.128Z,9.27
2023-04-25T17:54:56.157Z,9.15
2023-04-25T18:00:01.427Z,9.08
2023-04-25T18:05:16.814Z,9.06
2023-04-25T18:10:22.596Z,9.06
2023-04-25T18:15:27.789Z,9.04
2023-04-25T18:20:33.617Z,9.13
2023-04-25T18:25:38.395Z,9.07
2023-04-25T18:30:45.841Z,9.01
2023-04-25T18:35:58.183Z,8.80
2023-04-25T18:41:15.622Z,8.66
2023-04-25T18:46:31.036Z,8.49
2023-04-25T18:51:36.298Z,8.40
2023-04-25T18:56:41.389Z,8.26
2023-04-25T19:01:48.388Z,8.19
2023-04-25T19:06:53.572Z,8.18
2023-04-25T19:11:58.933Z,8.20
2023-04-25T19:17:03.998Z,8.22
2023-04-25T19:22:09.861Z,8.15
2023-04-25T19:27:15.383Z,8.14
2023-04-25T19:32:20.761Z,8.15
2023-04-25T19:37:25.972Z,8.10
2023-04-25T19:42:30.896Z,7.95
2023-04-25T19:47:39.616Z,7.87
2023-04-25T19:52:44.693Z,7.87
2023-04-25T19:57:49.880Z,7.75
2023-04-25T20:02:54.927Z,7.62
2023-04-25T20:08:00.247Z,7.55
2023-04-25T20:13:04.525Z,7.55
2023-04-25T20:18:10.129Z,7.45
2023-04-25T20:23:15.837Z,7.38
2023-04-25T20:28:23.416Z,7.25
2023-04-25T20:33:28.363Z,7.20
2023-04-25T20:38:34.034Z,7.17
2023-04-25T20:43:39.512Z,7.12
2023-04-25T20:48:44.372Z,7.01
2023-04-25T20:53:49.427Z,6.77
2023-04-25T20:58:57.940Z,6.61
2023-04-25T21:04:03.097Z,6.54
2023-04-25T21:09:08.802Z,6.47
2023-04-25T21:14:13.811Z,6.28
2023-04-25T21:19:18.907Z,6.13
2023-04-25T21:24:23.384Z,6.07
2023-04-25T21:29:28.595Z,6.04
2023-04-25T21:34:33.708Z,6.06
2023-04-25T21:39:38.713Z,6.06
2023-04-25T21:44:43.583Z,6.14
2023-04-25T21:49:48.519Z,6.19
2023-04-25T21:54:53.751Z,6.25
2023-04-25T21:59:58.979Z,6.20
2023-04-25T22:05:04.169Z,6.26
2023-04-25T22:10:09.907Z,6.37
2023-04-25T22:15:14.927Z,6.52
2023-04-25T22:20:25.336Z,6.68
2023-04-25T22:25:31.100Z,6.85
2023-04-25T22:30:36.778Z,7.01
2023-04-25T22:35:42.059Z,7.17
2023-04-25T22:40:49.118Z,7.36
2023-04-25T22:45:54.225Z,7.54
2023-04-25T22:51:07.331Z,7.66
2023-04-25T22:56:12.713Z,7.78
2023-04-25T23:01:19.442Z,7.93
2023-04-25T23:06:24.482Z,8.10
2023-04-25T23:11:30.957Z,8.28
2023-04-25T23:16:38.043Z,8.47
2023-04-25T23:21:43.544Z,8.67
2023-04-25T23:26:48.643Z,8.86
2023-04-25T23:31:53.700Z,9.05
2023-04-25T23:36:59.432Z,9.26
2023-04-25T23:42:04.267Z,9.49
2023-04-25T23:47:09.364Z,9.69
2023-04-25T23:52:17.261Z,9.92
2023-04-25T23:57:22.112Z,10.12
